Terminal Aerodrome Forecast
Issued by NWS

Home | Current Version | Previous Version | Text Only | Print | Product List | Glossary On
Versions: 1 2 3 4 5 6 7 8 9 10 11 12 13 14 15 16 17 18
611
FTUS43 KOAX 161121 CCA
TAFSNY
TAF COR
KSNY 161121Z 1612/1712 35010KT 2SM -SN OVC008
     FM161500 34018G30KT P6SM VCSH SCT020 BKN040
     FM162000 34014KT P6SM SCT040 BKN100=

USA.gov is the U.S. government's official web portal to all federal, state and local government web resources and services.